createdAt,value
2019-05-22T00:02:30.578Z,10.50
2019-05-22T00:05:14.583Z,13.93
2019-05-22T00:07:48.105Z,13.07
2019-05-22T00:10:19.581Z,8.37
2019-05-22T00:12:49.289Z,9.17
2019-05-22T00:15:18.785Z,13.80
2019-05-22T00:17:48.990Z,11.00
2019-05-22T00:20:19.235Z,11.47
2019-05-22T00:22:48.295Z,12.97
2019-05-22T00:25:18.325Z,9.27
2019-05-22T00:27:49.175Z,8.70
2019-05-22T00:30:18.103Z,9.57
2019-05-22T00:32:47.503Z,9.87
2019-05-22T00:35:19.028Z,10.37
2019-05-22T00:37:47.761Z,10.23
2019-05-22T00:40:17.949Z,9.33
2019-05-22T00:43:03.414Z,8.63
2019-05-22T00:45:22.897Z,10.10
2019-05-22T00:47:52.078Z,12.47
2019-05-22T00:50:33.062Z,11.73
2019-05-22T00:53:07.750Z,10.10
2019-05-22T00:55:44.474Z,10.10
2019-05-22T00:58:26.691Z,9.03
2019-05-22T01:00:58.014Z,9.87
2019-05-22T01:03:26.769Z,11.47
2019-05-22T01:05:57.955Z,9.03
2019-05-22T01:08:28.614Z,9.50
2019-05-22T01:10:59.090Z,9.13
2019-05-22T01:13:34.721Z,9.93
2019-05-22T01:16:04.940Z,10.03
2019-05-22T01:18:33.699Z,9.67
2019-05-22T01:21:04.089Z,10.93
2019-05-22T01:23:34.557Z,9.40
2019-05-22T01:26:04.994Z,8.93
2019-05-22T01:28:36.986Z,10.77
2019-05-22T01:31:16.258Z,13.10
2019-05-22T01:33:52.041Z,11.40
2019-05-22T01:36:24.799Z,9.60
2019-05-22T01:38:58.117Z,7.93
2019-05-22T01:41:33.303Z,9.13
2019-05-22T01:44:05.886Z,12.43
2019-05-22T01:46:36.491Z,12.27
2019-05-22T01:49:07.040Z,12.37
2019-05-22T01:51:35.805Z,8.07
2019-05-22T01:54:05.861Z,9.37
2019-05-22T01:56:36.137Z,9.83
2019-05-22T01:59:05.097Z,9.93
2019-05-22T02:01:33.487Z,13.63
2019-05-22T02:04:02.268Z,10.30
2019-05-22T02:06:30.718Z,9.47
2019-05-22T02:09:24.463Z,11.57
2019-05-22T02:12:02.519Z,11.17
2019-05-22T02:14:32.474Z,11.57
2019-05-22T02:17:02.985Z,10.57
2019-05-22T02:19:31.455Z,12.67
2019-05-22T02:22:01.487Z,12.10
2019-05-22T02:24:31.646Z,11.27
2019-05-22T02:27:01.723Z,11.10
2019-05-22T02:29:31.723Z,10.93
2019-05-22T02:32:00.857Z,11.60
2019-05-22T02:34:30.216Z,12.73
2019-05-22T02:36:59.133Z,11.33
2019-05-22T02:39:32.760Z,12.90
2019-05-22T02:42:07.881Z,14.10
2019-05-22T02:44:37.111Z,14.87
2019-05-22T02:47:17.861Z,13.90
2019-05-22T02:49:36.460Z,13.27
2019-05-22T02:52:06.863Z,10.77
2019-05-22T02:54:35.960Z,15.30
2019-05-22T02:57:04.908Z,13.20
2019-05-22T02:59:33.594Z,15.20
2019-05-22T03:02:03.808Z,11.70
2019-05-22T03:04:54.723Z,10.57
2019-05-22T03:07:24.498Z,12.30
2019-05-22T03:09:53.077Z,13.70
2019-05-22T03:12:22.331Z,16.07
2019-05-22T03:14:51.676Z,14.50
2019-05-22T03:17:24.586Z,16.83
2019-05-22T03:19:53.546Z,16.93
2019-05-22T03:22:34.562Z,18.43
2019-05-22T03:25:06.801Z,19.63
2019-05-22T03:27:43.314Z,12.80
2019-05-22T03:30:14.773Z,16.10
2019-05-22T03:32:44.554Z,14.77
2019-05-22T03:35:13.994Z,16.93
2019-05-22T03:37:43.041Z,23.10
2019-05-22T03:40:12.751Z,18.47
2019-05-22T03:42:41.371Z,25.97
2019-05-22T03:45:11.302Z,20.50
2019-05-22T03:47:41.333Z,26.67
2019-05-22T03:50:13.058Z,22.40
2019-05-22T03:52:41.620Z,22.20
2019-05-22T03:55:12.866Z,25.47
2019-05-22T03:57:41.620Z,24.03
2019-05-22T04:00:17.169Z,22.93
2019-05-22T04:02:48.604Z,22.47
2019-05-22T04:05:19.829Z,27.53
2019-05-22T04:07:49.544Z,26.70
2019-05-22T04:10:19.226Z,27.47
2019-05-22T04:12:48.359Z,35.80
2019-05-22T04:15:17.270Z,34.17
2019-05-22T04:17:46.710Z,31.37
2019-05-22T04:20:20.190Z,36.83
2019-05-22T04:22:51.086Z,30.40
2019-05-22T04:25:19.818Z,32.10
2019-05-22T04:27:48.505Z,32.03
2019-05-22T04:30:18.448Z,33.47
2019-05-22T04:32:47.758Z,32.97
2019-05-22T04:35:19.028Z,29.57
2019-05-22T04:37:49.666Z,30.83
2019-05-22T04:40:28.718Z,29.53
2019-05-22T04:42:58.766Z,30.50
2019-05-22T04:45:28.639Z,33.07
2019-05-22T04:48:02.766Z,34.07
2019-05-22T04:50:33.161Z,31.87
2019-05-22T04:53:02.029Z,34.10
2019-05-22T04:55:31.143Z,36.63
2019-05-22T04:58:03.045Z,35.70
2019-05-22T05:00:32.619Z,39.47
2019-05-22T05:03:02.173Z,43.87
2019-05-22T05:05:35.472Z,39.43
2019-05-22T05:08:04.827Z,42.00
2019-05-22T05:10:34.375Z,40.40
2019-05-22T05:13:03.832Z,42.33
2019-05-22T05:15:32.232Z,40.50
2019-05-22T05:18:00.696Z,38.53
2019-05-22T05:20:29.288Z,40.03
2019-05-22T05:22:57.920Z,35.00
2019-05-22T05:25:26.724Z,38.10
2019-05-22T05:27:56.222Z,37.20
2019-05-22T05:30:26.857Z,36.60
2019-05-22T05:32:56.600Z,38.10
2019-05-22T05:35:27.601Z,38.20
2019-05-22T05:37:56.151Z,37.60
2019-05-22T05:40:42.673Z,34.40
2019-05-22T05:43:12.356Z,35.50
2019-05-22T05:45:42.816Z,35.93
2019-05-22T05:48:13.607Z,31.07
2019-05-22T05:50:45.072Z,29.05
2019-05-22T05:53:16.829Z,32.47
2019-05-22T05:56:01.038Z,30.47
2019-05-22T05:58:30.876Z,31.73
2019-05-22T06:01:10.000Z,26.97
2019-05-22T06:03:40.485Z,32.27
2019-05-22T06:06:26.018Z,29.83
2019-05-22T06:08:56.366Z,28.80
2019-05-22T06:11:34.358Z,27.20
2019-05-22T06:14:05.245Z,30.30
2019-05-22T06:16:53.458Z,27.67
2019-05-22T06:19:23.825Z,23.67
2019-05-22T06:21:52.585Z,26.47
2019-05-22T06:24:25.290Z,26.13
2019-05-22T06:26:57.257Z,25.33
2019-05-22T06:29:28.804Z,27.83
2019-05-22T06:32:07.813Z,23.60
2019-05-22T06:34:37.020Z,25.60
2019-05-22T06:37:12.639Z,24.93
2019-05-22T06:39:41.314Z,26.10
2019-05-22T06:42:10.472Z,22.13
2019-05-22T06:44:39.681Z,27.30
2019-05-22T06:47:09.637Z,22.23
2019-05-22T06:49:40.174Z,21.90
2019-05-22T06:52:08.919Z,20.33
2019-05-22T06:54:38.331Z,21.37
2019-05-22T06:57:10.687Z,22.13
2019-05-22T06:59:39.694Z,25.53
2019-05-22T07:02:09.345Z,21.20
2019-05-22T07:04:38.804Z,22.17
2019-05-22T07:07:11.759Z,21.00
2019-05-22T07:09:40.334Z,21.00
2019-05-22T07:12:10.874Z,22.00
2019-05-22T07:14:43.313Z,19.70
2019-05-22T07:17:13.985Z,17.83
2019-05-22T07:19:43.773Z,18.97
2019-05-22T07:22:13.930Z,20.50
2019-05-22T07:24:43.078Z,19.77
2019-05-22T07:27:26.791Z,17.70
2019-05-22T07:29:56.105Z,18.30
2019-05-22T07:32:24.882Z,17.60
2019-05-22T07:34:53.289Z,17.53
2019-05-22T07:37:23.329Z,17.87
2019-05-22T07:39:52.256Z,18.33
2019-05-22T07:42:20.742Z,21.53
2019-05-22T07:44:49.212Z,20.80
2019-05-22T07:47:21.647Z,17.70
2019-05-22T07:49:50.079Z,18.93
2019-05-22T07:52:19.301Z,18.80
2019-05-22T07:54:49.038Z,17.00
2019-05-22T07:57:23.790Z,15.83
2019-05-22T07:59:52.627Z,15.57
2019-05-22T08:02:24.666Z,17.47
2019-05-22T08:04:53.902Z,16.63
2019-05-22T08:07:24.392Z,16.80
2019-05-22T08:09:53.326Z,16.20
2019-05-22T08:12:21.768Z,17.20
2019-05-22T08:14:50.601Z,15.57
2019-05-22T08:17:20.379Z,14.53
2019-05-22T08:19:48.855Z,14.50
2019-05-22T08:22:18.097Z,18.07
2019-05-22T08:24:46.688Z,18.03
2019-05-22T08:27:17.875Z,17.40
2019-05-22T08:29:47.033Z,15.87
2019-05-22T08:32:16.346Z,15.63
2019-05-22T08:34:45.701Z,13.93
2019-05-22T08:37:17.620Z,16.37
2019-05-22T08:39:47.067Z,14.17
2019-05-22T08:42:19.514Z,13.00
2019-05-22T08:44:48.532Z,12.30
2019-05-22T08:47:17.380Z,12.33
2019-05-22T08:49:46.361Z,10.43
2019-05-22T08:52:23.777Z,14.33
2019-05-22T08:54:47.262Z,12.77
2019-05-22T08:57:18.669Z,10.10
2019-05-22T08:59:47.349Z,11.80
2019-05-22T09:02:17.462Z,11.23
2019-05-22T09:04:46.240Z,12.57
2019-05-22T09:07:14.646Z,10.53
2019-05-22T09:09:43.130Z,10.60
2019-05-22T09:12:13.180Z,9.47
2019-05-22T09:14:41.841Z,10.23
2019-05-22T09:17:11.274Z,11.43
2019-05-22T09:19:39.831Z,11.47
2019-05-22T09:22:08.896Z,10.27
2019-05-22T09:24:38.984Z,9.77
2019-05-22T09:27:08.999Z,11.63
2019-05-22T09:29:37.520Z,9.07
2019-05-22T09:32:06.992Z,10.10
2019-05-22T09:34:35.791Z,13.87
2019-05-22T09:37:05.129Z,7.53
2019-05-22T09:39:33.952Z,8.07
2019-05-22T09:42:02.365Z,7.73
2019-05-22T09:44:30.784Z,10.10
2019-05-22T09:46:59.272Z,9.70
2019-05-22T09:49:28.174Z,8.10
2019-05-22T09:51:57.117Z,9.10
2019-05-22T09:54:26.259Z,7.23
2019-05-22T09:56:54.847Z,10.30
2019-05-22T09:59:23.581Z,8.53
2019-05-22T10:01:52.081Z,7.77
2019-05-22T10:04:20.714Z,5.70
2019-05-22T10:06:49.137Z,7.40
2019-05-22T10:09:17.614Z,7.23
2019-05-22T10:11:46.553Z,8.40
2019-05-22T10:14:15.731Z,9.67
2019-05-22T10:16:44.390Z,8.30
2019-05-22T10:19:13.126Z,7.50
2019-05-22T10:21:42.071Z,7.07
2019-05-22T10:24:11.099Z,6.33
2019-05-22T10:26:39.681Z,7.30
2019-05-22T10:29:08.819Z,7.37
2019-05-22T10:31:37.296Z,7.93
2019-05-22T10:34:05.757Z,6.50
2019-05-22T10:36:34.686Z,5.50
2019-05-22T10:39:04.920Z,8.03
2019-05-22T10:41:33.537Z,5.57
2019-05-22T10:44:02.354Z,5.30
2019-05-22T10:46:31.516Z,8.27
2019-05-22T10:49:00.355Z,4.93
2019-05-22T10:51:28.996Z,7.00
2019-05-22T10:53:58.295Z,5.60
2019-05-22T10:56:27.080Z,3.90
2019-05-22T10:58:55.764Z,4.27
2019-05-22T11:01:24.540Z,3.23
2019-05-22T11:03:53.504Z,4.23
2019-05-22T11:06:22.545Z,3.70
2019-05-22T11:08:52.697Z,3.57
2019-05-22T11:11:21.850Z,3.67
2019-05-22T11:14:00.865Z,4.73
2019-05-22T11:16:21.088Z,4.47
2019-05-22T11:18:49.633Z,2.67
2019-05-22T11:21:18.037Z,3.60
2019-05-22T11:23:51.866Z,3.20
2019-05-22T11:26:17.070Z,3.10
2019-05-22T11:28:46.273Z,3.57
2019-05-22T11:31:15.306Z,4.83
2019-05-22T11:33:44.440Z,3.20
2019-05-22T11:36:14.325Z,3.23
2019-05-22T11:38:42.740Z,3.40
2019-05-22T11:41:12.691Z,3.53
2019-05-22T11:43:41.880Z,2.33
2019-05-22T11:46:10.490Z,2.83
2019-05-22T11:48:39.546Z,5.97
2019-05-22T11:51:08.001Z,4.10
2019-05-22T11:53:36.674Z,4.20
2019-05-22T11:56:05.663Z,3.17
2019-05-22T11:58:34.079Z,2.20
2019-05-22T12:01:03.643Z,4.33
2019-05-22T12:03:33.282Z,2.43
2019-05-22T12:06:02.282Z,2.33
2019-05-22T12:08:31.912Z,2.93
2019-05-22T12:11:01.971Z,2.67
2019-05-22T12:13:31.467Z,3.70
2019-05-22T12:16:00.567Z,2.47
2019-05-22T12:18:29.199Z,4.33
2019-05-22T12:20:58.037Z,1.67
2019-05-22T12:23:27.202Z,3.40
2019-05-22T12:25:55.941Z,4.60
2019-05-22T12:28:24.421Z,3.47
2019-05-22T12:30:53.162Z,2.67
2019-05-22T12:33:21.733Z,2.10
2019-05-22T12:35:51.450Z,2.60
2019-05-22T12:38:21.895Z,2.77
2019-05-22T12:40:50.308Z,3.90
2019-05-22T12:43:19.575Z,2.60
2019-05-22T12:45:48.040Z,1.90
2019-05-22T12:48:17.080Z,1.83
2019-05-22T12:50:45.613Z,2.83
2019-05-22T12:53:17.158Z,2.43
2019-05-22T12:55:46.801Z,2.60
2019-05-22T12:58:15.439Z,4.50
2019-05-22T13:00:43.918Z,2.33
2019-05-22T13:03:14.291Z,4.30
2019-05-22T13:05:43.811Z,2.23
2019-05-22T13:08:13.492Z,3.13
2019-05-22T13:10:43.010Z,6.87
2019-05-22T13:13:12.288Z,4.10
2019-05-22T13:15:40.904Z,3.67
2019-05-22T13:18:10.828Z,2.60
2019-05-22T13:20:43.887Z,3.20
2019-05-22T13:23:13.749Z,2.40
2019-05-22T13:25:42.916Z,1.80
2019-05-22T13:28:14.514Z,4.23
2019-05-22T13:30:44.734Z,2.13
2019-05-22T13:33:17.953Z,3.83
2019-05-22T13:35:48.021Z,2.90
2019-05-22T13:38:17.963Z,3.70
2019-05-22T13:40:47.093Z,3.03
2019-05-22T13:43:15.733Z,4.10
2019-05-22T13:45:44.972Z,2.63
2019-05-22T13:48:14.117Z,2.97
2019-05-22T13:50:43.620Z,2.77
2019-05-22T13:53:15.917Z,3.53
2019-05-22T13:55:45.245Z,2.70
2019-05-22T13:58:14.329Z,2.80
2019-05-22T14:00:42.921Z,3.40
2019-05-22T14:03:11.595Z,4.80
2019-05-22T14:05:41.828Z,4.40
2019-05-22T14:08:11.186Z,2.43
2019-05-22T14:10:40.302Z,3.13
2019-05-22T14:13:09.222Z,3.97
2019-05-22T14:15:52.026Z,2.43
2019-05-22T14:18:08.422Z,2.30
2019-05-22T14:20:37.357Z,4.00
2019-05-22T14:23:06.233Z,3.03
2019-05-22T14:25:34.879Z,2.40
2019-05-22T14:28:05.720Z,4.97
2019-05-22T14:30:34.186Z,2.77
2019-05-22T14:33:04.833Z,4.10
2019-05-22T14:35:47.678Z,3.80
2019-05-22T14:38:06.138Z,2.33
2019-05-22T14:40:34.767Z,3.63
2019-05-22T14:43:03.431Z,4.03
2019-05-22T14:45:32.111Z,3.67
2019-05-22T14:48:00.531Z,2.73
2019-05-22T14:50:32.718Z,1.87
2019-05-22T14:53:00.266Z,2.73
2019-05-22T14:55:29.962Z,2.47
2019-05-22T14:57:59.401Z,2.53
2019-05-22T15:00:29.417Z,3.53
2019-05-22T15:02:59.687Z,2.37
2019-05-22T15:05:28.574Z,3.23
2019-05-22T15:07:57.716Z,1.90
2019-05-22T15:10:28.892Z,3.53
2019-05-22T15:12:57.856Z,2.37
2019-05-22T15:15:26.464Z,3.33
2019-05-22T15:17:55.261Z,2.47
2019-05-22T15:20:27.963Z,3.10
2019-05-22T15:22:57.226Z,4.77
2019-05-22T15:25:26.933Z,3.33
2019-05-22T15:27:55.411Z,2.70
2019-05-22T15:30:25.073Z,3.77
2019-05-22T15:32:53.814Z,2.43
2019-05-22T15:35:23.376Z,3.27
2019-05-22T15:37:53.712Z,3.17
2019-05-22T15:40:24.562Z,3.27
2019-05-22T15:42:54.946Z,2.80
2019-05-22T15:45:28.955Z,3.33
2019-05-22T15:48:00.566Z,2.00
2019-05-22T15:50:33.800Z,2.70
2019-05-22T15:53:10.331Z,2.20
2019-05-22T15:55:39.074Z,3.87
2019-05-22T15:58:08.748Z,3.10
2019-05-22T16:00:38.988Z,5.17
2019-05-22T16:03:10.675Z,4.10
2019-05-22T16:05:41.595Z,2.80
2019-05-22T16:08:10.613Z,1.83
2019-05-22T16:10:41.331Z,2.60
2019-05-22T16:13:12.512Z,2.40
2019-05-22T16:15:43.915Z,4.80
2019-05-22T16:18:13.749Z,3.07
2019-05-22T16:20:43.541Z,3.50
2019-05-22T16:23:13.084Z,5.83
2019-05-22T16:25:42.805Z,5.57
2019-05-22T16:28:13.708Z,7.67
2019-05-22T16:30:43.355Z,5.53
2019-05-22T16:33:12.926Z,3.70
2019-05-22T16:35:41.625Z,3.23
2019-05-22T16:38:10.327Z,3.10
2019-05-22T16:40:39.689Z,5.57
2019-05-22T16:43:09.253Z,2.67
2019-05-22T16:45:37.795Z,4.37
2019-05-22T16:48:08.391Z,3.57
2019-05-22T16:50:38.914Z,3.07
2019-05-22T16:53:12.070Z,3.43
2019-05-22T16:55:41.429Z,3.13
2019-05-22T16:58:11.149Z,2.57
2019-05-22T17:00:41.150Z,4.10
2019-05-22T17:03:11.559Z,3.73
2019-05-22T17:05:40.108Z,3.83
2019-05-22T17:08:10.768Z,3.70
2019-05-22T17:10:40.291Z,2.70
2019-05-22T17:13:12.137Z,4.47
2019-05-22T17:15:40.273Z,4.23
2019-05-22T17:18:10.322Z,4.30
2019-05-22T17:20:39.085Z,4.13
2019-05-22T17:23:08.007Z,4.03
2019-05-22T17:25:37.429Z,5.10
2019-05-22T17:28:07.422Z,5.17
2019-05-22T17:30:37.301Z,3.07
2019-05-22T17:33:07.642Z,5.67
2019-05-22T17:35:37.543Z,2.60
2019-05-22T17:38:08.568Z,5.03
2019-05-22T17:40:37.807Z,2.90
2019-05-22T17:43:09.655Z,3.53
2019-05-22T17:45:40.209Z,3.40
2019-05-22T17:48:09.434Z,3.27
2019-05-22T17:50:38.459Z,2.60
2019-05-22T17:53:07.234Z,41.77
2019-05-22T17:55:36.352Z,6.43
2019-05-22T17:58:06.498Z,3.53
2019-05-22T18:00:36.712Z,3.70
2019-05-22T18:03:05.539Z,2.83
2019-05-22T18:05:34.385Z,3.40
2019-05-22T18:08:03.543Z,3.27
2019-05-22T18:10:33.783Z,3.63
2019-05-22T18:13:03.494Z,4.40
2019-05-22T18:15:31.977Z,3.77
2019-05-22T18:18:01.173Z,4.57
2019-05-22T18:20:42.234Z,17.20
2019-05-22T18:23:00.395Z,6.63
2019-05-22T18:25:29.400Z,5.23
2019-05-22T18:27:58.025Z,4.13
2019-05-22T18:30:27.225Z,3.53
2019-05-22T18:32:55.749Z,8.10
2019-05-22T18:35:24.435Z,3.80
2019-05-22T18:37:52.933Z,2.60
2019-05-22T18:40:21.475Z,2.80
2019-05-22T18:42:49.958Z,3.27
2019-05-22T18:45:20.974Z,2.60
2019-05-22T18:47:49.445Z,2.90
2019-05-22T18:50:18.418Z,2.03
2019-05-22T18:52:50.125Z,3.23
2019-05-22T18:55:18.964Z,2.43
2019-05-22T18:57:47.903Z,3.03
2019-05-22T19:00:22.733Z,2.43
2019-05-22T19:02:51.517Z,3.47
2019-05-22T19:05:23.243Z,2.57
2019-05-22T19:07:51.777Z,3.03
2019-05-22T19:10:20.622Z,3.00
2019-05-22T19:12:49.535Z,2.90
2019-05-22T19:15:18.451Z,2.20
2019-05-22T19:17:47.097Z,3.37
2019-05-22T19:20:16.037Z,3.10
2019-05-22T19:22:58.449Z,2.17
2019-05-22T19:25:15.567Z,1.63
2019-05-22T19:27:44.107Z,2.53
2019-05-22T19:30:14.677Z,3.22
2019-05-22T19:32:43.137Z,2.63
2019-05-22T19:35:13.132Z,3.07
2019-05-22T19:37:41.941Z,3.10
2019-05-22T19:40:12.367Z,5.13
2019-05-22T19:42:41.698Z,3.17
2019-05-22T19:45:12.122Z,2.07
2019-05-22T19:47:46.000Z,4.60
2019-05-22T19:50:22.657Z,2.17
2019-05-22T19:52:45.130Z,3.90
2019-05-22T19:55:14.172Z,3.50
2019-05-22T19:57:42.842Z,5.73
2019-05-22T20:00:12.470Z,3.80
2019-05-22T20:02:41.333Z,5.50
2019-05-22T20:05:10.279Z,5.00
2019-05-22T20:07:39.257Z,7.27
2019-05-22T20:10:08.589Z,3.60
2019-05-22T20:12:37.147Z,4.27
2019-05-22T20:15:08.302Z,4.57
2019-05-22T20:17:37.301Z,5.30
2019-05-22T20:20:07.924Z,2.83
2019-05-22T20:22:37.267Z,2.73
2019-05-22T20:25:07.972Z,3.67
2019-05-22T20:27:36.794Z,3.77
2019-05-22T20:30:10.267Z,2.57
2019-05-22T20:32:39.208Z,5.20
2019-05-22T20:35:08.927Z,3.20
2019-05-22T20:37:37.399Z,2.90
2019-05-22T20:40:10.227Z,2.50
2019-05-22T20:42:39.437Z,3.57
2019-05-22T20:45:08.228Z,2.57
2019-05-22T20:47:39.403Z,3.80
2019-05-22T20:50:13.466Z,3.47
2019-05-22T20:52:42.494Z,3.20
2019-05-22T20:55:13.316Z,2.60
2019-05-22T20:57:42.539Z,3.33
2019-05-22T21:00:14.894Z,2.70
2019-05-22T21:02:44.892Z,3.27
2019-05-22T21:05:15.297Z,3.70
2019-05-22T21:07:50.909Z,3.17
2019-05-22T21:10:24.416Z,3.53
2019-05-22T21:12:54.276Z,4.27
2019-05-22T21:15:22.912Z,3.83
2019-05-22T21:17:52.512Z,4.03
2019-05-22T21:20:22.879Z,5.00
2019-05-22T21:22:51.961Z,3.20
2019-05-22T21:25:20.711Z,4.53
2019-05-22T21:27:49.187Z,4.13
2019-05-22T21:30:18.997Z,4.37
2019-05-22T21:32:47.567Z,5.77
2019-05-22T21:35:16.988Z,5.50
2019-05-22T21:37:45.382Z,4.63
2019-05-22T21:40:14.856Z,4.70
2019-05-22T21:42:45.350Z,6.00
2019-05-22T21:45:16.257Z,3.57
2019-05-22T21:47:46.011Z,3.87
2019-05-22T21:50:16.223Z,4.77
2019-05-22T21:52:44.878Z,3.57
2019-05-22T21:55:15.992Z,3.17
2019-05-22T21:57:45.644Z,4.20
2019-05-22T22:00:24.320Z,3.50
2019-05-22T22:02:53.634Z,5.70
2019-05-22T22:05:22.031Z,4.10
2019-05-22T22:07:51.669Z,2.77
2019-05-22T22:10:20.312Z,3.10
2019-05-22T22:12:49.172Z,3.40
2019-05-22T22:15:18.979Z,3.47
2019-05-22T22:17:47.523Z,3.93
2019-05-22T22:20:18.853Z,3.40
2019-05-22T22:22:48.979Z,4.47
2019-05-22T22:25:17.562Z,2.97
2019-05-22T22:27:45.957Z,3.80
2019-05-22T22:30:30.069Z,3.10
2019-05-22T22:33:01.277Z,4.20
2019-05-22T22:35:31.495Z,3.30
2019-05-22T22:38:00.862Z,2.80
2019-05-22T22:40:29.822Z,5.63
2019-05-22T22:43:00.021Z,4.03
2019-05-22T22:45:42.046Z,5.05
2019-05-22T22:48:13.310Z,3.73
2019-05-22T22:50:41.901Z,3.50
2019-05-22T22:53:10.361Z,4.00
2019-05-22T22:55:40.192Z,3.42
2019-05-22T22:58:17.346Z,3.77
2019-05-22T23:00:46.020Z,3.90
2019-05-22T23:03:20.266Z,4.80
2019-05-22T23:05:49.317Z,3.23
2019-05-22T23:08:20.826Z,3.10
2019-05-22T23:10:49.990Z,5.75
2019-05-22T23:13:19.144Z,4.20
2019-05-22T23:15:49.954Z,5.47
2019-05-22T23:18:36.011Z,4.93
2019-05-22T23:21:03.258Z,4.63
2019-05-22T23:23:30.493Z,4.93
2019-05-22T23:25:59.152Z,5.10
2019-05-22T23:28:34.547Z,4.00
2019-05-22T23:30:57.656Z,3.83
2019-05-22T23:33:26.906Z,4.77
2019-05-22T23:35:55.963Z,3.60
2019-05-22T23:38:24.898Z,5.27
2019-05-22T23:40:55.444Z,3.43
2019-05-22T23:43:24.068Z,3.83
2019-05-22T23:45:52.948Z,5.08
2019-05-22T23:48:22.988Z,4.33
2019-05-22T23:50:52.139Z,4.37
2019-05-22T23:53:23.157Z,3.77
2019-05-22T23:55:51.709Z,4.80
2019-05-22T23:58:22.711Z,5.80
